Time;durP1;ratioP1;P1;durP2;ratioP2;P2;SDS_P1;SDS_P2;PMS_P1;PMS_P2;Temp;Humidity;BMP_temperature;BMP_pressure;BME280_temperature;BME280_humidity;BME280_pressure;Samples;Min_cycle;Max_cycle;Signal;HPM_P1;HPM_P2
2023/04/07 00:01:42;;;;;;;0.20;0.20;;;;;;;17.40;56.34;101459.38;5048825;28;20013;-65
2023/04/07 00:04:07;;;;;;;0.20;0.20;;;;;;;17.28;56.26;101455.97;5036771;28;20033;-68
2023/04/07 00:06:32;;;;;;;0.20;0.20;;;;;;;17.27;56.71;101454.34;5050890;28;20493;-67
2023/04/07 00:08:58;;;;;;;0.20;0.20;;;;;;;17.17;57.07;101451.50;5050730;28;20121;-67
2023/04/07 00:11:23;;;;;;;0.43;0.20;;;;;;;17.24;56.42;101452.94;5050585;28;20168;-66
2023/04/07 00:13:48;;;;;;;0.10;0.10;;;;;;;17.60;55.48;101458.81;5028732;28;20076;-68
2023/04/07 00:16:14;;;;;;;0.20;0.20;;;;;;;17.63;55.66;101450.16;5032323;28;20144;-68
2023/04/07 00:18:39;;;;;;;0.30;0.30;;;;;;;17.47;56.03;101449.94;5011778;28;20116;-69
2023/04/07 00:21:04;;;;;;;0.20;0.20;;;;;;;17.22;56.95;101448.84;5024807;28;20029;-67
2023/04/07 00:23:30;;;;;;;0.30;0.30;;;;;;;17.54;55.83;101458.78;5034285;28;20452;-65
2023/04/07 00:25:56;;;;;;;0.20;0.20;;;;;;;17.42;56.03;101455.34;5049686;28;20017;-67
2023/04/07 00:28:21;;;;;;;0.10;0.10;;;;;;;17.21;56.93;101455.38;5039455;28;20037;-65
2023/04/07 00:30:46;;;;;;;0.20;0.20;;;;;;;17.58;55.94;101453.63;5042275;28;20033;-68
2023/04/07 00:33:12;;;;;;;0.15;0.15;;;;;;;17.71;55.21;101455.13;5032928;28;20029;-68
2023/04/07 00:35:37;;;;;;;0.30;0.30;;;;;;;17.64;54.48;101462.66;5033210;28;20036;-67
2023/04/07 00:38:02;;;;;;;0.10;0.10;;;;;;;17.64;55.61;101452.59;5031148;28;20072;-67
2023/04/07 00:40:28;;;;;;;0.10;0.10;;;;;;;17.52;55.67;101454.66;5039863;28;20480;-67
2023/04/07 00:42:53;;;;;;;0.30;0.30;;;;;;;17.44;56.51;101446.91;5042442;28;20030;-66
2023/04/07 00:45:19;;;;;;;0.15;0.15;;;;;;;17.59;56.32;101457.19;5045953;28;20088;-66
2023/04/07 00:47:44;;;;;;;0.20;0.20;;;;;;;17.25;57.27;101451.91;5049455;28;20069;-66
2023/04/07 00:50:10;;;;;;;0.20;0.20;;;;;;;17.64;55.30;101454.50;5036101;28;20292;-66
2023/04/07 00:52:35;;;;;;;0.10;0.10;;;;;;;17.42;56.19;101459.94;5045401;28;20033;-65
2023/04/07 00:55:01;;;;;;;0.20;0.20;;;;;;;17.50;56.32;101454.91;5043653;28;20136;-68
2023/04/07 00:57:26;;;;;;;0.20;0.20;;;;;;;17.52;56.50;101446.50;5045359;28;20512;-68
2023/04/07 00:59:52;;;;;;;0.30;0.30;;;;;;;16.91;58.16;101452.25;5035173;28;20041;-67
2023/04/07 01:02:23;;;;;;;0.20;0.20;;;;;;;16.56;60.40;101458.03;5033473;28;20037;-68
2023/04/07 01:04:52;;;;;;;0.20;0.20;;;;;;;15.53;64.44;101455.75;5041670;28;20055;-67
2023/04/07 01:07:25;;;;;;;0.30;0.30;;;;;;;16.10;62.74;101461.91;5039031;28;20029;-67
2023/04/07 01:10:00;;;;;;;0.10;0.10;;;;;;;16.48;61.23;101461.13;5047596;28;20040;-68
2023/04/07 01:12:26;;;;;;;0.20;0.20;;;;;;;15.89;62.85;101456.38;5039926;28;20053;-67
2023/04/07 01:14:57;;;;;;;0.30;0.30;;;;;;;15.84;63.95;101466.06;5026124;28;20055;-66
2023/04/07 01:17:25;;;;;;;0.20;0.20;;;;;;;16.89;59.96;101457.13;5038805;28;20049;-66
2023/04/07 01:20:00;;;;;;;0.30;0.30;;;;;;;17.59;57.62;101463.44;5033068;28;20078;-66
2023/04/07 01:22:33;;;;;;;0.10;0.10;;;;;;;16.27;61.31;101467.31;5053824;28;20431;-67
2023/04/07 01:24:58;;;;;;;0.10;0.10;;;;;;;17.09;59.16;101462.81;5041555;28;20394;-67
2023/04/07 01:27:26;;;;;;;0.20;0.20;;;;;;;17.38;57.92;101458.81;5048170;28;20064;-67
2023/04/07 01:29:53;;;;;;;0.30;0.30;;;;;;;17.72;56.57;101457.59;5047674;28;20044;-66
2023/04/07 01:32:19;;;;;;;0.20;0.20;;;;;;;17.41;57.32;101471.91;5034008;28;20041;-67
2023/04/07 01:34:48;;;;;;;0.17;0.17;;;;;;;16.79;59.96;101467.84;5052293;28;20029;-67
2023/04/07 01:37:15;;;;;;;0.20;0.20;;;;;;;17.10;58.44;101465.28;5052625;28;20120;-66
2023/04/07 01:39:41;;;;;;;0.30;0.30;;;;;;;17.34;57.40;101472.09;5035151;28;20037;-67
2023/04/07 01:42:07;;;;;;;0.20;0.20;;;;;;;16.99;58.81;101468.94;5052372;28;20045;-66
2023/04/07 01:44:34;;;;;;;0.20;0.20;;;;;;;17.07;58.11;101462.25;5044678;28;20072;-67
2023/04/07 01:47:00;;;;;;;0.20;0.20;;;;;;;17.27;57.73;101457.91;5046266;28;20025;-67
2023/04/07 01:49:27;;;;;;;0.25;0.25;;;;;;;17.21;57.74;101460.78;5036516;28;20470;-68
2023/04/07 01:51:54;;;;;;;0.20;0.20;;;;;;;17.03;58.56;101463.81;5048364;28;20439;-68
2023/04/07 01:54:20;;;;;;;0.20;0.20;;;;;;;17.51;57.42;101458.47;5038408;28;20128;-66
2023/04/07 01:56:45;;;;;;;0.20;0.20;;;;;;;17.31;57.71;101469.06;5046303;28;20029;-67
2023/04/07 01:59:11;;;;;;;0.20;0.20;;;;;;;17.05;58.84;101464.41;5024553;28;20048;-67
2023/04/07 02:01:37;;;;;;;0.13;0.13;;;;;;;16.78;59.78;101466.22;5046829;28;20108;-69
2023/04/07 02:04:13;;;;;;;0.20;0.20;;;;;;;17.07;59.19;101454.09;5050926;28;20033;-69
2023/04/07 02:06:47;;;;;;;0.10;0.10;;;;;;;17.22;59.00;101465.97;5059388;28;20044;-67
2023/04/07 02:09:15;;;;;;;0.10;0.10;;;;;;;17.15;58.92;101459.09;5057655;28;20039;-67
2023/04/07 02:11:42;;;;;;;0.20;0.20;;;;;;;16.91;59.40;101460.41;5043104;28;20037;-66
2023/04/07 02:14:08;;;;;;;0.20;0.20;;;;;;;16.63;60.46;101462.22;5020733;28;20408;-67
2023/04/07 02:16:35;;;;;;;0.30;0.30;;;;;;;17.12;58.59;101465.84;5032465;28;20120;-67
2023/04/07 02:19:02;;;;;;;0.20;0.20;;;;;;;17.19;58.87;101465.66;5029509;28;20040;-68
2023/04/07 02:21:29;;;;;;;0.15;0.15;;;;;;;17.10;58.29;101462.56;5030045;28;20037;-66
2023/04/07 02:23:55;;;;;;;0.10;0.10;;;;;;;16.90;59.12;101465.03;5024354;28;20123;-67
2023/04/07 02:26:20;;;;;;;0.20;0.20;;;;;;;16.87;59.46;101462.81;5030929;28;20079;-67
2023/04/07 02:28:46;;;;;;;0.20;0.20;;;;;;;16.79;60.05;101463.25;5029707;28;20044;-66
2023/04/07 02:31:12;;;;;;;0.20;0.20;;;;;;;16.66;60.73;101467.16;5029510;28;20067;-67
2023/04/07 02:33:38;;;;;;;0.20;0.20;;;;;;;15.60;63.58;101477.28;5030921;28;20525;-67
2023/04/07 02:36:03;;;;;;;0.22;0.22;;;;;;;15.21;65.83;101480.81;5031408;28;20193;-66
2023/04/07 02:38:29;;;;;;;0.15;0.15;;;;;;;14.75;67.34;101474.44;5029743;28;20033;-66
2023/04/07 02:40:54;;;;;;;0.20;0.20;;;;;;;15.12;68.00;101479.53;5028850;28;20029;-67
2023/04/07 02:43:20;;;;;;;0.20;0.20;;;;;;;15.25;66.89;101471.16;5025773;28;20069;-66
2023/04/07 02:45:45;;;;;;;0.20;0.20;;;;;;;15.76;64.25;101477.28;5029316;28;20489;-67
2023/04/07 02:48:11;;;;;;;0.20;0.20;;;;;;;15.35;66.32;101479.47;5029311;28;20573;-67
2023/04/07 02:50:36;;;;;;;0.20;0.20;;;;;;;15.47;66.00;101483.78;5030598;28;20037;-68
2023/04/07 02:53:01;;;;;;;0.28;0.28;;;;;;;14.87;67.86;101477.94;5026520;28;20052;-67
2023/04/07 02:55:27;;;;;;;0.32;0.32;;;;;;;15.51;66.29;101486.84;5030410;28;20034;-67
2023/04/07 02:57:52;;;;;;;0.17;0.17;;;;;;;16.26;63.58;101477.34;5029507;28;20308;-66
2023/04/07 03:00:17;;;;;;;0.17;0.17;;;;;;;15.92;62.91;101489.22;5028977;28;20125;-68
2023/04/07 03:02:43;;;;;;;0.20;0.20;;;;;;;15.34;66.14;101489.47;5030365;28;20132;-68
2023/04/07 03:05:08;;;;;;;0.20;0.20;;;;;;;16.14;62.90;101479.31;5029837;28;20049;-66
2023/04/07 03:07:34;;;;;;;0.30;0.30;;;;;;;17.11;59.47;101495.97;5030809;28;20362;-67
2023/04/07 03:09:59;;;;;;;0.20;0.20;;;;;;;16.63;61.19;101489.34;5029823;28;20033;-66
2023/04/07 03:12:25;;;;;;;0.20;0.20;;;;;;;16.83;60.21;101493.41;5028905;28;20125;-68
2023/04/07 03:14:50;;;;;;;0.20;0.20;;;;;;;16.49;61.53;101489.97;5048432;28;20512;-67
2023/04/07 03:17:15;;;;;;;0.20;0.20;;;;;;;16.24;60.90;101489.50;5049197;28;20045;-66
2023/04/07 03:19:41;;;;;;;0.20;0.20;;;;;;;15.78;62.77;101493.34;5029790;28;20123;-67
2023/04/07 03:22:06;;;;;;;0.10;0.10;;;;;;;16.69;60.39;101490.25;5048473;28;20123;-67
2023/04/07 03:24:31;;;;;;;0.20;0.20;;;;;;;16.52;61.13;101492.16;5026631;28;20107;-67
2023/04/07 03:26:57;;;;;;;0.20;0.20;;;;;;;15.78;62.56;101491.44;5049640;28;20131;-66
2023/04/07 03:29:22;;;;;;;0.20;0.20;;;;;;;15.74;63.36;101494.88;5050352;28;20120;-66
2023/04/07 03:31:48;;;;;;;0.13;0.13;;;;;;;14.46;69.21;101496.19;5043084;28;20074;-66
2023/04/07 03:34:13;;;;;;;0.10;0.10;;;;;;;15.61;64.69;101492.47;5052605;28;20211;-66
2023/04/07 03:36:38;;;;;;;0.20;0.20;;;;;;;14.80;67.90;101487.25;5052905;28;20040;-66
2023/04/07 03:39:04;;;;;;;0.20;0.20;;;;;;;14.45;69.03;101489.13;5053719;28;20055;-66
2023/04/07 03:41:29;;;;;;;0.10;0.10;;;;;;;15.45;65.25;101479.72;5051993;28;20115;-67
2023/04/07 03:43:55;;;;;;;0.10;0.10;;;;;;;14.86;66.61;101491.69;5052680;28;20033;-65
2023/04/07 03:46:20;;;;;;;0.30;0.30;;;;;;;15.21;66.42;101487.06;5054743;28;20025;-67
2023/04/07 03:48:46;;;;;;;0.20;0.20;;;;;;;15.46;63.91;101490.28;5054162;28;20136;-66
2023/04/07 03:51:11;;;;;;;0.22;0.22;;;;;;;14.77;66.97;101496.66;5053895;28;20073;-67
2023/04/07 03:53:37;;;;;;;0.10;0.10;;;;;;;15.84;63.70;101489.66;5046681;28;20507;-67
2023/04/07 03:56:02;;;;;;;0.30;0.30;;;;;;;17.17;58.89;101492.25;5039097;28;20029;-66
2023/04/07 03:58:28;;;;;;;0.20;0.20;;;;;;;17.42;57.76;101495.28;5047509;28;20127;-66
2023/04/07 04:00:53;;;;;;;0.30;0.30;;;;;;;17.70;56.09;101500.50;5060928;28;20498;-67
2023/04/07 04:03:19;;;;;;;0.10;0.10;;;;;;;17.16;57.22;101499.56;5067572;28;20119;-68
2023/04/07 04:05:44;;;;;;;0.20;0.20;;;;;;;17.64;56.62;101504.25;5054169;28;20682;-67
2023/04/07 04:08:10;;;;;;;0.20;0.20;;;;;;;17.58;56.82;101504.44;5048381;28;20049;-67
2023/04/07 04:10:35;;;;;;;0.25;0.25;;;;;;;17.51;56.62;101505.47;5034011;28;20025;-67
2023/04/07 04:13:05;;;;;;;0.20;0.20;;;;;;;17.80;56.17;101500.63;5050494;28;20060;-66
2023/04/07 04:15:31;;;;;;;0.10;0.10;;;;;;;17.77;56.38;101505.75;5033197;28;20386;-66
2023/04/07 04:17:56;;;;;;;0.20;0.20;;;;;;;17.50;56.74;101506.56;5052154;28;20566;-67
2023/04/07 04:20:21;;;;;;;0.20;0.20;;;;;;;17.63;56.79;101507.22;5047219;28;20030;-66
2023/04/07 04:22:47;;;;;;;0.30;0.30;;;;;;;17.75;56.42;101513.34;5036183;28;20492;-67
2023/04/07 04:25:12;;;;;;;0.28;0.28;;;;;;;17.75;56.10;101506.00;5034089;28;20017;-67
2023/04/07 04:27:37;;;;;;;0.38;0.38;;;;;;;17.90;55.89;101508.06;5041732;28;20030;-65
2023/04/07 04:30:03;;;;;;;0.20;0.20;;;;;;;17.73;55.52;101508.16;5037420;28;20083;-66
2023/04/07 04:32:29;;;;;;;0.30;0.30;;;;;;;17.63;55.64;101518.91;5039377;28;20030;-66
2023/04/07 04:34:54;;;;;;;0.20;0.20;;;;;;;17.68;55.69;101518.97;5033899;28;20083;-68
2023/04/07 04:37:19;;;;;;;0.22;0.22;;;;;;;17.73;55.89;101512.78;5033933;28;20489;-66
2023/04/07 04:39:45;;;;;;;0.30;0.30;;;;;;;17.13;57.16;101513.66;5051598;28;20033;-67
2023/04/07 04:42:10;;;;;;;0.20;0.20;;;;;;;17.73;56.18;101521.72;5023041;28;20079;-68
2023/04/07 04:44:36;;;;;;;0.20;0.20;;;;;;;17.53;56.34;101516.09;5026922;28;20118;-68
2023/04/07 04:47:01;;;;;;;0.20;0.20;;;;;;;17.77;56.11;101527.50;5033125;28;20045;-68
2023/04/07 04:49:27;;;;;;;0.22;0.22;;;;;;;17.27;57.79;101522.25;5049678;28;20538;-67
2023/04/07 04:51:52;;;;;;;0.20;0.20;;;;;;;17.72;55.75;101520.13;5036432;28;20041;-67
2023/04/07 04:54:18;;;;;;;0.30;0.30;;;;;;;17.86;55.68;101523.25;5047147;28;20065;-67
2023/04/07 04:56:44;;;;;;;0.20;0.20;;;;;;;17.73;55.72;101523.66;5040876;28;20043;-67
2023/04/07 04:59:09;;;;;;;0.30;0.30;;;;;;;17.84;55.35;101528.13;5037663;28;20223;-67
2023/04/07 05:01:35;;;;;;;0.22;0.22;;;;;;;17.73;55.88;101535.34;5031442;28;20030;-66
2023/04/07 05:04:00;;;;;;;0.30;0.30;;;;;;;17.36;57.64;101535.16;5030491;28;20041;-67
2023/04/07 05:06:26;;;;;;;0.28;0.28;;;;;;;17.62;56.42;101540.91;5033083;28;20064;-68
2023/04/07 05:08:52;;;;;;;0.30;0.30;;;;;;;16.77;58.98;101532.41;5032701;28;20100;-67
2023/04/07 05:11:18;;;;;;;0.30;0.30;;;;;;;16.96;59.14;101531.88;5046845;28;20037;-66
2023/04/07 05:13:43;;;;;;;0.30;0.30;;;;;;;17.10;58.28;101527.72;5040168;28;20049;-67
2023/04/07 05:16:08;;;;;;;0.30;0.30;;;;;;;17.28;57.72;101535.59;5053439;28;20476;-67
2023/04/07 05:18:34;;;;;;;0.28;0.28;;;;;;;16.14;61.34;101543.56;5050164;28;20045;-68
2023/04/07 05:21:00;;;;;;;0.35;0.35;;;;;;;17.00;58.42;101545.81;5052399;28;20037;-66
2023/04/07 05:23:26;;;;;;;0.20;0.20;;;;;;;16.56;60.26;101542.97;5051649;28;20051;-67
2023/04/07 05:25:51;;;;;;;0.20;0.20;;;;;;;16.80;60.45;101542.78;5052624;28;20033;-67
2023/04/07 05:28:17;;;;;;;0.20;0.20;;;;;;;15.93;62.36;101546.97;5050019;28;20051;-67
2023/04/07 05:30:42;;;;;;;0.20;0.20;;;;;;;16.82;60.10;101546.91;5046558;28;20093;-66
2023/04/07 05:33:07;;;;;;;0.25;0.25;;;;;;;16.92;59.35;101544.34;5046375;28;20071;-67
2023/04/07 05:35:33;;;;;;;0.25;0.25;;;;;;;17.49;57.25;101553.00;5051764;28;20183;-67
2023/04/07 05:37:58;;;;;;;0.20;0.20;;;;;;;16.23;61.44;101559.22;5050291;28;20021;-66
2023/04/07 05:40:24;;;;;;;0.22;0.22;;;;;;;17.47;57.47;101560.56;5050881;28;20023;-67
2023/04/07 05:42:49;;;;;;;0.15;0.15;;;;;;;17.02;59.16;101563.47;5033095;28;20127;-67
2023/04/07 05:45:15;;;;;;;0.17;0.17;;;;;;;17.08;59.10;101567.91;5052267;28;20392;-66
2023/04/07 05:47:40;;;;;;;0.20;0.20;;;;;;;16.77;59.16;101560.38;5049429;28;20025;-69
2023/04/07 05:50:06;;;;;;;0.20;0.20;;;;;;;17.35;58.07;101562.56;5035114;28;20033;-68
2023/04/07 05:52:31;;;;;;;0.20;0.20;;;;;;;17.50;56.85;101562.78;5059688;28;20039;-67
2023/04/07 05:54:57;;;;;;;0.20;0.20;;;;;;;17.57;56.74;101562.63;5060390;28;20078;-66
2023/04/07 05:57:22;;;;;;;0.25;0.25;;;;;;;17.24;57.43;101563.50;5058305;28;20393;-67
2023/04/07 05:59:48;;;;;;;0.17;0.17;;;;;;;17.55;56.34;101566.38;5033912;28;20492;-67
2023/04/07 06:02:13;;;;;;;0.30;0.30;;;;;;;17.40;56.88;101563.47;5048113;28;20112;-66
2023/04/07 06:04:39;;;;;;;0.20;0.20;;;;;;;17.50;56.35;101573.66;5051603;28;20029;-66
2023/04/07 06:07:04;;;;;;;0.20;0.20;;;;;;;17.57;56.30;101571.59;5029851;28;20045;-67
2023/04/07 06:09:30;;;;;;;0.30;0.30;;;;;;;16.89;58.19;101574.69;5054315;28;20096;-67
2023/04/07 06:11:55;;;;;;;0.40;0.40;;;;;;;16.89;58.35;101574.69;5066137;28;20029;-67
2023/04/07 06:14:21;;;;;;;0.20;0.20;;;;;;;17.53;56.49;101575.88;5044556;28;20299;-67
2023/04/07 06:16:46;;;;;;;0.10;0.10;;;;;;;17.25;56.97;101584.16;5031501;28;20037;-68
2023/04/07 06:19:11;;;;;;;0.30;0.30;;;;;;;17.72;55.84;101582.63;5031353;28;20029;-66
2023/04/07 06:21:38;;;;;;;0.30;0.30;;;;;;;17.72;55.47;101584.53;5030133;28;20543;-68
2023/04/07 06:24:04;;;;;;;0.20;0.20;;;;;;;17.72;55.91;101596.22;5042164;28;20485;-67
2023/04/07 06:26:30;;;;;;;0.30;0.30;;;;;;;17.71;55.04;101591.84;5047717;28;20052;-67
2023/04/07 06:28:57;;;;;;;0.20;0.20;;;;;;;17.54;56.42;101591.09;5048930;28;20029;-66
2023/04/07 06:31:22;;;;;;;0.20;0.20;;;;;;;17.72;56.05;101593.50;5037004;28;20493;-67
2023/04/07 06:33:47;;;;;;;0.20;0.20;;;;;;;17.52;57.09;101593.25;5029421;28;20029;-66
2023/04/07 06:36:13;;;;;;;0.20;0.20;;;;;;;16.90;58.75;101599.97;5046740;28;20073;-69
2023/04/07 06:38:38;;;;;;;0.20;0.20;;;;;;;17.17;57.57;101598.19;5039649;28;20084;-67
2023/04/07 06:41:04;;;;;;;0.32;0.32;;;;;;;17.56;56.75;101597.13;5050167;28;20044;-67
2023/04/07 06:43:30;;;;;;;0.20;0.20;;;;;;;17.58;56.32;101594.97;5049827;28;20036;-67
2023/04/07 06:45:55;;;;;;;0.10;0.10;;;;;;;17.80;55.98;101600.41;5034222;28;20116;-67
2023/04/07 06:48:21;;;;;;;0.30;0.30;;;;;;;17.89;55.72;101609.72;5044411;28;20065;-66
2023/04/07 06:50:49;;;;;;;0.20;0.20;;;;;;;17.73;55.82;101611.44;5040356;28;20048;-67
2023/04/07 06:53:15;;;;;;;0.20;0.20;;;;;;;17.45;57.32;101617.84;5036835;28;20159;-66
2023/04/07 06:55:40;;;;;;;0.20;0.20;;;;;;;16.98;58.68;101613.91;5047231;28;20496;-67
2023/04/07 06:58:06;;;;;;;0.25;0.25;;;;;;;17.33;57.87;101619.06;5030798;28;20041;-68
2023/04/07 07:00:31;;;;;;;0.15;0.15;;;;;;;17.71;56.38;101621.75;5049322;28;20045;-67
2023/04/07 07:02:56;;;;;;;0.20;0.20;;;;;;;17.79;56.88;101620.50;5050389;28;20065;-68
2023/04/07 07:05:22;;;;;;;0.30;0.30;;;;;;;17.55;57.53;101628.91;5035392;28;20080;-66
2023/04/07 07:07:48;;;;;;;0.20;0.20;;;;;;;17.89;55.58;101628.75;5045920;28;20120;-67
2023/04/07 07:10:14;;;;;;;0.20;0.20;;;;;;;17.96;55.94;101634.84;5035428;28;20029;-67
2023/04/07 07:12:39;;;;;;;0.30;0.30;;;;;;;17.25;57.61;101636.63;5034283;28;20139;-67
2023/04/07 07:15:05;;;;;;;0.20;0.20;;;;;;;17.49;57.59;101631.81;5011891;28;20064;-69
2023/04/07 07:17:31;;;;;;;0.10;0.10;;;;;;;17.48;57.56;101632.84;5030453;28;20477;-66
2023/04/07 07:19:56;;;;;;;0.20;0.20;;;;;;;17.74;57.26;101637.56;5028128;28;20124;-67
2023/04/07 07:22:22;;;;;;;0.10;0.10;;;;;;;17.90;56.48;101631.25;5030957;28;20449;-68
2023/04/07 07:24:47;;;;;;;0.28;0.28;;;;;;;17.98;55.80;101633.53;5030422;28;20591;-66
2023/04/07 07:27:12;;;;;;;0.30;0.30;;;;;;;18.13;55.45;101641.03;5029847;28;20527;-67
2023/04/07 07:29:38;;;;;;;0.20;0.20;;;;;;;17.98;56.00;101641.69;5029825;28;20079;-68
2023/04/07 07:32:03;;;;;;;0.20;0.20;;;;;;;18.16;55.77;101646.75;5029961;28;20040;-67
2023/04/07 07:34:28;;;;;;;0.20;0.20;;;;;;;18.32;55.59;101640.41;5035179;28;20092;-67
2023/04/07 07:36:54;;;;;;;0.10;0.10;;;;;;;18.33;55.59;101646.69;5029231;28;20048;-66
2023/04/07 07:39:20;;;;;;;0.20;0.20;;;;;;;17.19;58.88;101655.78;5029489;28;20497;-66
2023/04/07 07:41:45;;;;;;;0.20;0.20;;;;;;;18.02;56.63;101650.97;5017787;28;20071;-67
2023/04/07 07:44:11;;;;;;;0.10;0.10;;;;;;;18.01;56.14;101649.31;5028043;28;20038;-66
2023/04/07 07:46:36;;;;;;;0.13;0.13;;;;;;;18.15;55.81;101656.03;5045243;28;20024;-68
2023/04/07 07:49:01;;;;;;;0.20;0.20;;;;;;;17.99;56.68;101664.25;5049256;28;20358;-67
2023/04/07 07:51:27;;;;;;;0.10;0.10;;;;;;;17.66;57.37;101659.75;5049366;28;20039;-66
2023/04/07 07:53:52;;;;;;;0.13;0.13;;;;;;;18.06;56.36;101664.88;5049517;28;20029;-66
2023/04/07 07:56:18;;;;;;;0.30;0.30;;;;;;;17.83;56.71;101671.41;5049678;28;20025;-67
2023/04/07 07:58:43;;;;;;;0.20;0.20;;;;;;;18.23;55.52;101671.06;5030879;28;20103;-65
2023/04/07 08:01:08;;;;;;;0.20;0.20;;;;;;;17.96;56.48;101681.09;5046288;28;20031;-68
2023/04/07 08:03:34;;;;;;;0.25;0.25;;;;;;;18.27;55.97;101681.19;5033751;28;20371;-68
2023/04/07 08:06:00;;;;;;;0.30;0.30;;;;;;;18.27;55.39;101683.91;5042360;28;20107;-67
2023/04/07 08:08:25;;;;;;;0.30;0.30;;;;;;;18.01;56.82;101686.56;5032587;28;21504;-67
2023/04/07 08:10:50;;;;;;;0.10;0.10;;;;;;;17.79;57.15;101683.84;5042691;28;20036;-68
2023/04/07 08:13:16;;;;;;;0.20;0.20;;;;;;;18.37;55.42;101689.47;5043568;28;20056;-67
2023/04/07 08:15:41;;;;;;;0.10;0.10;;;;;;;18.56;54.28;101686.41;5034420;28;20053;-67
2023/04/07 08:18:07;;;;;;;0.20;0.20;;;;;;;17.63;56.98;101687.44;5004681;28;20505;-68
2023/04/07 08:20:32;;;;;;;0.20;0.20;;;;;;;17.70;58.16;101701.69;5031688;28;20037;-67
2023/04/07 08:22:58;;;;;;;0.13;0.13;;;;;;;18.37;55.64;101697.63;5032660;28;20044;-67
2023/04/07 08:25:24;;;;;;;0.30;0.30;;;;;;;18.62;54.72;101697.09;5032805;28;20025;-67
2023/04/07 08:27:50;;;;;;;0.10;0.10;;;;;;;18.40;54.97;101696.28;4994958;28;20029;-67
2023/04/07 08:30:15;;;;;;;0.10;0.10;;;;;;;18.32;54.84;101694.00;5012284;28;20180;-68
2023/04/07 08:32:43;;;;;;;0.20;0.20;;;;;;;18.16;55.59;101700.38;5012884;28;20041;-67
2023/04/07 08:35:08;;;;;;;0.10;0.10;;;;;;;18.58;54.74;101711.47;5026190;28;20098;-67
2023/04/07 08:37:34;;;;;;;0.13;0.13;;;;;;;18.67;54.99;101704.50;5026564;28;20048;-67
2023/04/07 08:40:01;;;;;;;0.20;0.20;;;;;;;17.82;57.62;101716.00;5007544;28;20208;-67
2023/04/07 08:42:29;;;;;;;0.20;0.20;;;;;;;18.58;55.61;101715.00;5025486;28;20119;-67
2023/04/07 08:44:57;;;;;;;0.10;0.10;;;;;;;18.82;55.43;101718.25;5007662;28;20467;-67
2023/04/07 08:47:26;;;;;;;0.20;0.20;;;;;;;18.26;55.91;101719.50;5025076;28;20037;-67
2023/04/07 08:49:52;;;;;;;0.20;0.20;;;;;;;18.12;56.66;101721.81;5025542;28;20021;-67
2023/04/07 08:52:21;;;;;;;0.20;0.20;;;;;;;18.96;54.30;101725.75;5026788;28;20065;-67
2023/04/07 08:54:48;;;;;;;0.20;0.20;;;;;;;18.39;56.31;101724.59;5023857;28;20536;-68
2023/04/07 08:57:15;;;;;;;0.20;0.20;;;;;;;18.39;56.24;101724.59;5030967;28;20037;-67
2023/04/07 08:59:43;;;;;;;0.10;0.10;;;;;;;18.48;55.96;101727.69;5027459;28;20038;-68
2023/04/07 09:02:09;;;;;;;0.13;0.13;;;;;;;18.16;57.21;101736.53;5026055;28;20042;-68
2023/04/07 09:04:35;;;;;;;0.30;0.30;;;;;;;18.14;57.62;101738.69;5033947;28;20037;-67
2023/04/07 09:07:01;;;;;;;0.30;0.30;;;;;;;18.34;56.62;101733.50;5035720;28;20032;-67
2023/04/07 09:09:26;;;;;;;0.13;0.13;;;;;;;18.86;55.22;101738.44;5026203;28;20050;-67
2023/04/07 09:11:51;;;;;;;0.20;0.20;;;;;;;19.21;54.56;101739.56;5008265;28;20044;-67
2023/04/07 09:14:17;;;;;;;0.20;0.20;;;;;;;18.80;55.21;101734.03;5036447;28;20049;-67
2023/04/07 09:16:43;;;;;;;0.13;0.13;;;;;;;19.12;54.14;101745.75;5044064;28;20029;-69
2023/04/07 09:19:08;;;;;;;0.20;0.20;;;;;;;18.53;55.68;101741.38;5044852;28;20017;-67
2023/04/07 09:21:47;;;;;;;0.10;0.10;;;;;;;18.12;58.67;101742.75;5044292;28;20049;-67
2023/04/07 09:24:26;;;;;;;0.10;0.10;;;;;;;18.56;56.90;101746.28;5043433;28;20048;-67
2023/04/07 09:27:16;;;;;;;0.20;0.20;;;;;;;18.88;54.22;101748.00;5043051;28;20544;-66
2023/04/07 09:29:43;;;;;;;0.20;0.20;;;;;;;18.72;55.61;101746.19;5043822;28;20068;-67
2023/04/07 09:32:10;;;;;;;0.10;0.10;;;;;;;18.51;57.28;101740.81;5043229;28;20385;-68
2023/04/07 09:34:38;;;;;;;0.20;0.20;;;;;;;19.03;55.35;101744.56;5044276;28;20029;-67
2023/04/07 09:37:05;;;;;;;0.20;0.20;;;;;;;19.45;53.80;101745.50;5044053;28;20040;-67
2023/04/07 09:39:31;;;;;;;0.10;0.10;;;;;;;18.47;56.44;101745.94;5044701;28;20040;-67
2023/04/07 09:41:56;;;;;;;0.30;0.30;;;;;;;18.06;58.34;101751.94;5043802;28;20033;-66
2023/04/07 09:44:23;;;;;;;0.20;0.20;;;;;;;18.48;56.66;101742.13;5043317;28;20068;-66
2023/04/07 09:46:52;;;;;;;0.20;0.20;;;;;;;18.38;56.51;101752.84;5044350;28;20078;-67
2023/04/07 09:49:19;;;;;;;0.10;0.10;;;;;;;18.45;55.82;101747.25;5044108;28;20021;-66
2023/04/07 09:52:06;;;;;;;0.20;0.20;;;;;;;18.93;54.96;101750.75;5043707;28;20343;-68
2023/04/07 09:54:34;;;;;;;0.10;0.10;;;;;;;18.68;55.71;101749.69;5042422;28;20033;-68
2023/04/07 09:57:01;;;;;;;0.20;0.20;;;;;;;18.16;56.67;101755.59;5043138;28;20045;-68
2023/04/07 09:59:28;;;;;;;0.20;0.20;;;;;;;18.54;56.30;101762.06;5044380;28;20451;-66
2023/04/07 10:01:54;;;;;;;0.20;0.20;;;;;;;18.80;55.74;101758.53;5044526;28;20041;-67
2023/04/07 10:04:19;;;;;;;0.20;0.20;;;;;;;18.87;55.38;101768.13;5044347;28;20123;-67
2023/04/07 10:06:46;;;;;;;0.20;0.20;;;;;;;18.27;57.52;101762.81;5045065;28;20040;-68
2023/04/07 10:09:12;;;;;;;0.20;0.20;;;;;;;18.23;56.46;101763.56;5002296;28;20306;-67
2023/04/07 10:11:38;;;;;;;0.10;0.10;;;;;;;18.94;55.32;101763.31;5044383;28;20036;-68
2023/04/07 10:14:05;;;;;;;0.22;0.22;;;;;;;19.10;54.21;101767.00;5044144;28;20080;-66
2023/04/07 10:16:31;;;;;;;0.10;0.10;;;;;;;18.75;54.95;101767.47;5044540;28;20087;-67
2023/04/07 10:18:57;;;;;;;0.20;0.20;;;;;;;19.14;54.12;101771.66;5024277;28;20572;-67
2023/04/07 10:21:22;;;;;;;0.15;0.15;;;;;;;19.23;54.00;101770.13;5037594;28;20029;-68
2023/04/07 10:24:03;;;;;;;0.10;0.10;;;;;;;19.41;55.10;101768.09;5041364;28;20040;-68
2023/04/07 10:26:30;;;;;;;0.20;0.20;;;;;;;19.73;54.31;101774.34;5045451;28;20508;-67
2023/04/07 10:29:04;;;;;;;0.20;0.20;;;;;;;20.14;53.57;101774.31;5044676;28;20406;-67
2023/04/07 10:31:30;;;;;;;0.10;0.10;;;;;;;19.61;55.12;101780.00;5038185;28;20060;-66
2023/04/07 10:33:56;;;;;;;0.10;0.10;;;;;;;19.63;54.62;101782.44;5041404;28;20036;-68
2023/04/07 10:36:22;;;;;;;0.20;0.20;;;;;;;19.38;55.22;101791.25;5045000;28;20618;-69
2023/04/07 10:39:05;;;;;;;0.10;0.10;;;;;;;19.66;54.83;101787.38;5048474;28;20364;-67
2023/04/07 10:41:40;;;;;;;0.28;0.28;;;;;;;19.21;55.96;101794.09;5046067;28;20067;-68
2023/04/07 10:44:06;;;;;;;0.15;0.15;;;;;;;18.85;56.55;101794.81;5047911;28;20922;-67
2023/04/07 10:46:44;;;;;;;0.10;0.10;;;;;;;18.82;56.29;101792.59;5045271;28;20051;-66
2023/04/07 10:49:10;;;;;;;0.10;0.10;;;;;;;19.15;55.20;101800.56;5036024;28;20573;-67
2023/04/07 10:51:36;;;;;;;0.10;0.10;;;;;;;19.11;55.75;101799.44;5045156;28;20392;-66
2023/04/07 10:54:19;;;;;;;0.15;0.15;;;;;;;19.17;55.24;101808.47;5046281;28;20056;-67
2023/04/07 10:57:09;;;;;;;0.20;0.20;;;;;;;19.25;55.06;101803.38;5046076;28;20036;-66
2023/04/07 10:59:35;;;;;;;0.15;0.15;;;;;;;19.23;55.24;101802.81;5024384;28;20037;-68
2023/04/07 11:02:16;;;;;;;0.10;0.10;;;;;;;19.18;55.85;101802.75;5040867;28;20051;-67
2023/04/07 11:04:44;;;;;;;0.20;0.20;;;;;;;19.24;55.07;101806.38;5040695;28;20075;-68
2023/04/07 11:07:13;;;;;;;0.10;0.10;;;;;;;19.24;55.72;101807.19;5043927;28;20041;-68
2023/04/07 11:09:41;;;;;;;0.10;0.10;;;;;;;19.34;55.21;101803.75;5040133;28;20116;-67
2023/04/07 11:12:07;;;;;;;0.20;0.20;;;;;;;18.76;56.52;101820.03;5040897;28;20063;-69
2023/04/07 11:14:36;;;;;;;0.20;0.20;;;;;;;19.28;54.81;101815.69;5035654;28;20426;-68
2023/04/07 11:17:02;;;;;;;0.10;0.10;;;;;;;18.62;56.48;101816.88;5002951;28;20037;-69
2023/04/07 11:19:27;;;;;;;0.10;0.10;;;;;;;18.96;56.12;101817.53;5022852;28;20044;-68
2023/04/07 11:22:13;;;;;;;0.10;0.10;;;;;;;19.20;55.15;101822.41;5022662;28;21572;-67